Terminal Aerodrome Forecast
Issued by NWS Wilmington, OH

Current Version | Previous Version | Graphics & Text | Print | Product List | Glossary On
Versions: 1 2 3 4 5 6 7 8 9 10 11 12 13 14 15 16 17 18 19 20 21 22 23
000
FTUS41 KILN 191727
TAFILN
TAF
KILN 191727Z 1918/2018 19007KT 4SM -RA BR BKN060
     FM192000 19006KT P6SM VCSH BKN090
     FM192300 18004KT P6SM BKN060
     FM200800 19004KT 5SM BR SCT025
     FM201000 VRB03KT 2SM BR SCT007
     FM201400 22003KT P6SM BKN018
     FM201600 24006KT P6SM SCT030=

USA.gov is the U.S. government's official web portal to all federal, state and local government web resources and services.